createdAt,value
2022-11-01T00:01:40.289Z,100.00
2022-11-01T00:04:43.078Z,100.00
2022-11-01T00:07:46.104Z,100.00
2022-11-01T00:10:49.202Z,100.00
2022-11-01T00:13:52.147Z,100.00
2022-11-01T00:16:56.739Z,100.00
2022-11-01T00:19:59.468Z,100.00
2022-11-01T00:23:03.165Z,100.00
2022-11-01T00:26:07.267Z,100.00
2022-11-01T00:29:10.234Z,100.00
2022-11-01T00:32:14.631Z,100.00
2022-11-01T00:35:17.642Z,100.00
2022-11-01T00:38:21.162Z,100.00
2022-11-01T00:41:23.934Z,100.00
2022-11-01T00:44:26.791Z,100.00
2022-11-01T00:47:30.806Z,100.00
2022-11-01T00:50:33.550Z,100.00
2022-11-01T00:53:36.398Z,100.00
2022-11-01T00:56:39.654Z,100.00
2022-11-01T00:59:42.768Z,100.00
2022-11-01T01:02:47.233Z,100.00
2022-11-01T01:05:50.883Z,100.00
2022-11-01T01:08:53.602Z,100.00
2022-11-01T01:11:56.687Z,100.00
2022-11-01T01:14:59.460Z,100.00
2022-11-01T01:18:03.908Z,100.00
2022-11-01T01:21:07.368Z,100.00
2022-11-01T01:24:10.671Z,100.00
2022-11-01T01:27:13.537Z,100.00
2022-11-01T01:30:17.520Z,100.00
2022-11-01T01:33:21.811Z,100.00
2022-11-01T01:36:24.763Z,100.00
2022-11-01T01:39:27.460Z,100.00
2022-11-01T01:42:33.026Z,100.00
2022-11-01T01:45:39.138Z,100.00
2022-11-01T01:48:46.056Z,100.00
2022-11-01T01:51:49.129Z,100.00
2022-11-01T01:54:53.109Z,100.00
2022-11-01T01:57:58.737Z,100.00
2022-11-01T02:01:01.645Z,100.00
2022-11-01T02:04:10.454Z,100.00
2022-11-01T02:07:13.526Z,100.00
2022-11-01T02:10:17.991Z,100.00
2022-11-01T02:13:20.933Z,100.00
2022-11-01T02:16:44.864Z,100.00
2022-11-01T02:20:17.396Z,100.00
2022-11-01T02:23:45.150Z,100.00
2022-11-01T02:27:03.271Z,100.00
2022-11-01T02:30:16.258Z,100.00
2022-11-01T02:33:30.146Z,100.00
2022-11-01T02:36:40.265Z,100.00
2022-11-01T02:39:51.268Z,100.00
2022-11-01T02:42:58.666Z,100.00
2022-11-01T02:46:24.595Z,100.00
2022-11-01T02:49:32.457Z,100.00
2022-11-01T02:52:38.239Z,100.00
2022-11-01T02:55:42.127Z,100.00
2022-11-01T02:58:46.669Z,100.00
2022-11-01T03:01:57.830Z,100.00
2022-11-01T03:05:02.898Z,100.00
2022-11-01T03:08:09.192Z,100.00
2022-11-01T03:11:15.815Z,100.00
2022-11-01T03:14:27.732Z,100.00
2022-11-01T03:17:34.278Z,100.00
2022-11-01T03:20:49.192Z,100.00
2022-11-01T03:23:57.459Z,100.00
2022-11-01T03:27:05.304Z,100.00
2022-11-01T03:30:11.889Z,100.00
2022-11-01T03:33:16.744Z,100.00
2022-11-01T03:36:25.005Z,100.00
2022-11-01T03:39:32.724Z,100.00
2022-11-01T03:42:38.145Z,100.00
2022-11-01T03:45:42.806Z,100.00
2022-11-01T03:48:45.882Z,100.00
2022-11-01T03:51:49.975Z,100.00
2022-11-01T03:54:53.052Z,100.00
2022-11-01T03:57:57.907Z,100.00
2022-11-01T04:01:01.068Z,100.00
2022-11-01T04:04:04.060Z,100.00
2022-11-01T04:07:08.545Z,100.00
2022-11-01T04:10:12.158Z,100.00
2022-11-01T04:13:15.235Z,100.00
2022-11-01T04:16:35.861Z,100.00
2022-11-01T04:19:56.984Z,100.00
2022-11-01T04:23:01.582Z,100.00
2022-11-01T04:26:06.207Z,100.00
2022-11-01T04:29:08.938Z,100.00
2022-11-01T04:32:12.068Z,100.00
2022-11-01T04:35:14.936Z,100.00
2022-11-01T04:38:19.539Z,100.00
2022-11-01T04:41:23.598Z,100.00
2022-11-01T04:44:26.672Z,100.00
2022-11-01T04:47:29.397Z,100.00
2022-11-01T04:50:33.084Z,100.00
2022-11-01T04:53:37.212Z,100.00
2022-11-01T04:56:40.249Z,100.00
2022-11-01T04:59:42.977Z,100.00
2022-11-01T05:02:46.025Z,100.00
2022-11-01T05:05:49.337Z,100.00
2022-11-01T05:08:55.367Z,100.00
2022-11-01T05:11:58.514Z,100.00
2022-11-01T05:15:01.225Z,100.00
2022-11-01T05:18:04.068Z,100.00
2022-11-01T05:21:06.982Z,100.00
2022-11-01T05:24:11.582Z,100.00
2022-11-01T05:27:14.285Z,100.00
2022-11-01T05:30:17.751Z,100.00
2022-11-01T05:33:20.468Z,100.00
2022-11-01T05:36:23.471Z,100.00
2022-11-01T05:39:27.516Z,100.00
2022-11-01T05:42:30.224Z,100.00
2022-11-01T05:45:33.079Z,100.00
2022-11-01T05:48:36.299Z,100.00
2022-11-01T05:51:39.785Z,100.00
2022-11-01T05:54:43.862Z,100.00
2022-11-01T06:00:50.640Z,100.00
2022-11-01T06:03:53.813Z,100.00
2022-11-01T06:06:56.548Z,100.00
2022-11-01T06:10:01.025Z,100.00
2022-11-01T06:13:04.578Z,100.00
2022-11-01T06:16:08.209Z,100.00
2022-11-01T06:19:11.289Z,100.00
2022-11-01T06:22:14.381Z,100.00
2022-11-01T06:25:18.873Z,100.00
2022-11-01T06:28:21.734Z,100.00
2022-11-01T06:31:24.729Z,100.00
2022-11-01T06:34:27.540Z,100.00
2022-11-01T06:37:30.269Z,100.00
2022-11-01T06:40:34.432Z,100.00
2022-11-01T06:43:37.161Z,100.00
2022-11-01T06:46:40.230Z,100.00
2022-11-01T06:49:43.442Z,100.00
2022-11-01T06:52:46.137Z,100.00
2022-11-01T06:55:50.646Z,100.00
2022-11-01T06:58:53.824Z,100.00
2022-11-01T07:01:56.856Z,100.00
2022-11-01T07:04:59.618Z,100.00
2022-11-01T07:08:03.645Z,100.00
2022-11-01T07:11:07.918Z,100.00
2022-11-01T07:14:11.357Z,100.00
2022-11-01T07:17:14.378Z,100.00
2022-11-01T07:20:17.102Z,100.00
2022-11-01T07:23:20.377Z,100.00
2022-11-01T07:26:24.958Z,100.00
2022-11-01T07:29:27.990Z,100.00
2022-11-01T07:32:30.692Z,100.00
2022-11-01T07:35:34.698Z,100.00
2022-11-01T07:38:37.543Z,100.00
2022-11-01T07:41:42.380Z,100.00
2022-11-01T07:44:45.813Z,100.00
2022-11-01T07:47:48.984Z,100.00
2022-11-01T07:50:51.691Z,100.00
2022-11-01T07:53:54.876Z,100.00
2022-11-01T07:56:58.972Z,100.00
2022-11-01T08:00:01.985Z,100.00
2022-11-01T08:03:07.472Z,100.00
2022-11-01T08:06:10.534Z,100.00
2022-11-01T08:09:13.270Z,100.00
2022-11-01T08:12:17.869Z,100.00
2022-11-01T08:15:20.715Z,100.00
2022-11-01T08:18:24.913Z,100.00
2022-11-01T08:21:27.706Z,100.00
2022-11-01T08:24:30.361Z,100.00
2022-11-01T08:27:35.376Z,100.00
2022-11-01T08:30:40.165Z,100.00
2022-11-01T08:33:42.857Z,100.00
2022-11-01T08:36:45.541Z,100.00
2022-11-01T08:39:48.536Z,100.00
2022-11-01T08:42:52.597Z,100.00
2022-11-01T08:45:55.381Z,100.00
2022-11-01T08:49:00.640Z,100.00
2022-11-01T08:52:03.939Z,100.00
2022-11-01T08:55:07.985Z,100.00
2022-11-01T08:58:12.186Z,100.00
2022-11-01T09:01:14.980Z,100.00
2022-11-01T09:04:18.025Z,100.00
2022-11-01T09:07:21.171Z,100.00
2022-11-01T09:10:24.215Z,100.00
2022-11-01T09:13:29.060Z,100.00
2022-11-01T09:16:33.181Z,100.00
2022-11-01T09:19:36.409Z,100.00
2022-11-01T09:22:39.164Z,100.00
2022-11-01T09:25:41.994Z,100.00
2022-11-01T09:28:46.530Z,100.00
2022-11-01T09:31:52.195Z,100.00
2022-11-01T09:34:57.867Z,100.00
2022-11-01T09:38:01.913Z,100.00
2022-11-01T09:41:08.808Z,100.00
2022-11-01T09:44:17.536Z,100.00
2022-11-01T09:47:24.569Z,100.00
2022-11-01T09:50:30.140Z,100.00
2022-11-01T09:53:33.073Z,100.00
2022-11-01T09:56:41.956Z,100.00
2022-11-01T09:59:56.517Z,100.00
2022-11-01T10:03:30.091Z,100.00
2022-11-01T10:06:39.013Z,100.00
2022-11-01T10:09:53.258Z,100.00
2022-11-01T10:13:05.097Z,100.00
2022-11-01T10:16:16.279Z,100.00
2022-11-01T10:19:22.747Z,100.00
2022-11-01T10:22:31.595Z,100.00
2022-11-01T10:25:38.518Z,100.00
2022-11-01T10:28:48.646Z,100.00
2022-11-01T10:31:54.943Z,100.00
2022-11-01T10:35:01.895Z,100.00
2022-11-01T10:38:24.944Z,100.00
2022-11-01T10:41:39.281Z,99.34
2022-11-01T10:44:46.601Z,95.24
2022-11-01T10:47:58.697Z,94.25
2022-11-01T10:51:05.355Z,94.07
2022-11-01T10:54:16.395Z,94.36
2022-11-01T10:57:31.775Z,94.13
2022-11-01T11:00:38.665Z,94.31
2022-11-01T11:03:45.418Z,94.16
2022-11-01T11:06:48.399Z,91.75
2022-11-01T11:09:51.342Z,92.68
2022-11-01T11:12:59.463Z,93.99
2022-11-01T11:16:05.575Z,94.28
2022-11-01T11:19:22.534Z,94.60
2022-11-01T11:22:26.498Z,94.45
2022-11-01T11:25:35.110Z,94.44
2022-11-01T11:28:44.245Z,93.53
2022-11-01T11:31:47.117Z,93.72
2022-11-01T11:34:57.305Z,93.23
2022-11-01T11:38:02.492Z,92.03
2022-11-01T11:41:06.384Z,91.81
2022-11-01T11:44:39.881Z,92.23
2022-11-01T11:47:42.714Z,91.06
2022-11-01T11:50:47.001Z,90.39
2022-11-01T11:54:22.081Z,88.87
2022-11-01T11:57:27.504Z,86.91
2022-11-01T12:00:32.871Z,85.80
2022-11-01T12:03:47.361Z,84.98
2022-11-01T12:06:51.820Z,83.47
2022-11-01T12:09:58.633Z,81.96
2022-11-01T12:13:02.522Z,82.41
2022-11-01T12:16:20.125Z,83.04
2022-11-01T12:19:25.888Z,82.77
2022-11-01T12:22:34.392Z,82.71
2022-11-01T12:25:38.091Z,82.19
2022-11-01T12:28:45.107Z,82.40
2022-11-01T12:31:49.497Z,82.26
2022-11-01T12:34:56.643Z,80.96
2022-11-01T12:38:29.012Z,80.95
2022-11-01T12:41:40.370Z,80.81
2022-11-01T12:44:48.724Z,80.77
2022-11-01T12:47:57.266Z,80.68
2022-11-01T12:51:05.771Z,81.32
2022-11-01T12:54:16.266Z,81.10
2022-11-01T12:57:19.708Z,81.14
2022-11-01T13:00:22.646Z,80.31
2022-11-01T13:03:39.439Z,80.09
2022-11-01T13:07:03.056Z,79.71
2022-11-01T13:10:15.493Z,79.33
2022-11-01T13:13:24.307Z,79.67
2022-11-01T13:16:32.844Z,79.04
2022-11-01T13:19:43.138Z,77.58
2022-11-01T13:22:55.167Z,78.09
2022-11-01T13:26:04.282Z,76.46
2022-11-01T13:29:13.427Z,74.35
2022-11-01T13:32:25.393Z,72.51
2022-11-01T13:35:49.341Z,72.32
2022-11-01T13:38:59.722Z,72.35
2022-11-01T13:42:09.998Z,73.07
2022-11-01T13:45:33.278Z,73.53
2022-11-01T13:48:45.850Z,72.31
2022-11-01T13:51:56.679Z,72.37
2022-11-01T13:55:07.400Z,72.88
2022-11-01T13:58:19.247Z,71.78
2022-11-01T14:01:31.989Z,71.78
2022-11-01T14:04:38.979Z,72.75
2022-11-01T14:08:13.008Z,72.95
2022-11-01T14:11:45.952Z,73.26
2022-11-01T14:14:55.928Z,72.66
2022-11-01T14:18:08.609Z,69.18
2022-11-01T14:21:28.992Z,71.79
2022-11-01T14:24:35.290Z,71.69
2022-11-01T14:27:40.679Z,72.68
2022-11-01T14:30:46.740Z,72.74
2022-11-01T14:33:49.612Z,73.65
2022-11-01T14:36:54.950Z,74.18
2022-11-01T14:40:05.046Z,73.34
2022-11-01T14:43:17.988Z,73.35
2022-11-01T14:46:25.427Z,74.32
2022-11-01T14:49:34.647Z,74.95
2022-11-01T14:52:43.107Z,75.33
2022-11-01T14:55:46.048Z,75.59
2022-11-01T14:58:49.305Z,76.02
2022-11-01T15:02:02.037Z,76.79
2022-11-01T15:05:12.223Z,77.04
2022-11-01T15:08:38.952Z,77.72
2022-11-01T15:11:41.807Z,77.43
2022-11-01T15:14:47.476Z,76.90
2022-11-01T15:17:58.546Z,76.29
2022-11-01T15:21:02.223Z,75.54
2022-11-01T15:24:05.322Z,75.40
2022-11-01T15:27:15.070Z,74.57
2022-11-01T15:30:22.645Z,74.88
2022-11-01T15:33:30.986Z,74.87
2022-11-01T15:36:36.909Z,75.12
2022-11-01T15:39:39.644Z,74.99
2022-11-01T15:42:48.852Z,75.00
2022-11-01T15:45:55.389Z,75.17
2022-11-01T15:49:02.417Z,75.55
2022-11-01T15:52:08.733Z,76.56
2022-11-01T15:55:19.363Z,77.14
2022-11-01T15:58:26.226Z,77.41
2022-11-01T16:01:29.241Z,78.09
2022-11-01T16:04:50.690Z,78.51
2022-11-01T16:07:53.978Z,79.08
2022-11-01T16:10:57.344Z,79.63
2022-11-01T16:14:03.156Z,79.92
2022-11-01T16:17:09.833Z,80.15
2022-11-01T16:20:31.859Z,80.59
2022-11-01T16:23:34.963Z,80.90
2022-11-01T16:26:54.030Z,80.86
2022-11-01T16:29:56.905Z,80.72
2022-11-01T16:33:08.664Z,80.46
2022-11-01T16:36:35.244Z,81.01
2022-11-01T16:39:37.986Z,81.05
2022-11-01T16:42:41.020Z,81.43
2022-11-01T16:45:43.713Z,81.96
2022-11-01T16:48:52.743Z,82.22
2022-11-01T16:51:57.242Z,82.24
2022-11-01T16:58:08.049Z,83.00
2022-11-01T17:01:19.958Z,83.08
2022-11-01T17:04:23.342Z,83.38
2022-11-01T17:07:27.920Z,83.84
2022-11-01T17:10:30.973Z,84.14
2022-11-01T17:13:34.045Z,84.84
2022-11-01T17:16:38.229Z,84.84
2022-11-01T17:19:44.524Z,85.26
2022-11-01T17:22:50.937Z,85.76
2022-11-01T17:25:56.325Z,85.69
2022-11-01T17:28:59.420Z,86.07
2022-11-01T17:32:04.430Z,86.47
2022-11-01T17:35:07.949Z,87.02
2022-11-01T17:38:16.370Z,86.81
2022-11-01T17:41:21.164Z,87.58
2022-11-01T17:44:24.074Z,88.03
2022-11-01T17:47:27.360Z,88.56
2022-11-01T17:50:30.118Z,88.90
2022-11-01T17:53:34.737Z,88.88
2022-11-01T17:56:37.409Z,89.03
2022-11-01T17:59:40.809Z,89.50
2022-11-01T18:02:44.235Z,89.64
2022-11-01T18:05:47.370Z,90.19
2022-11-01T18:08:54.014Z,90.32
2022-11-01T18:12:05.621Z,90.50
2022-11-01T18:15:18.229Z,90.69
2022-11-01T18:18:45.434Z,90.90
2022-11-01T18:21:57.183Z,90.92
2022-11-01T18:25:06.332Z,91.52
2022-11-01T18:28:13.623Z,91.80
2022-11-01T18:31:23.476Z,92.02
2022-11-01T18:34:34.622Z,92.37
2022-11-01T18:37:43.231Z,92.36
2022-11-01T18:40:55.615Z,92.48
2022-11-01T18:43:58.900Z,93.03
2022-11-01T18:47:06.215Z,93.07
2022-11-01T18:50:21.112Z,93.18
2022-11-01T18:53:25.119Z,93.47
2022-11-01T18:56:30.545Z,93.42
2022-11-01T18:59:35.577Z,93.68
2022-11-01T19:02:39.908Z,94.19
2022-11-01T19:05:43.584Z,94.28
2022-11-01T19:08:52.578Z,94.30
2022-11-01T19:12:00.738Z,94.63
2022-11-01T19:15:09.116Z,94.61
2022-11-01T19:18:18.959Z,94.78
2022-11-01T19:21:25.339Z,94.63
2022-11-01T19:24:33.205Z,94.89
2022-11-01T19:27:37.319Z,95.31
2022-11-01T19:30:40.125Z,95.34
2022-11-01T19:33:46.057Z,95.11
2022-11-01T19:36:50.149Z,95.36
2022-11-01T19:39:54.311Z,95.63
2022-11-01T19:43:00.962Z,95.51
2022-11-01T19:46:03.956Z,95.61
2022-11-01T19:49:20.357Z,95.87
2022-11-01T19:52:27.248Z,96.04
2022-11-01T19:55:41.020Z,95.94
2022-11-01T19:58:47.112Z,96.12
2022-11-01T20:01:50.426Z,96.41
2022-11-01T20:04:58.443Z,96.08
2022-11-01T20:08:14.292Z,96.51
2022-11-01T20:11:17.517Z,96.34
2022-11-01T20:14:21.650Z,96.49
2022-11-01T20:17:24.541Z,96.92
2022-11-01T20:20:27.237Z,96.90
2022-11-01T20:23:30.648Z,96.91
2022-11-01T20:26:33.655Z,97.42
2022-11-01T20:29:37.689Z,97.39
2022-11-01T20:32:40.729Z,97.40
2022-11-01T20:35:43.882Z,97.40
2022-11-01T20:38:46.729Z,97.58
2022-11-01T20:41:49.477Z,97.54
2022-11-01T20:44:53.604Z,97.89
2022-11-01T20:47:57.260Z,97.81
2022-11-01T20:51:00.091Z,97.86
2022-11-01T20:54:03.586Z,98.18
2022-11-01T20:57:12.283Z,98.02
2022-11-01T21:00:19.972Z,98.52
2022-11-01T21:03:24.487Z,99.02
2022-11-01T21:06:32.213Z,99.62
2022-11-01T21:09:39.675Z,99.57
2022-11-01T21:12:47.504Z,99.26
2022-11-01T21:15:52.419Z,99.50
2022-11-01T21:18:59.466Z,99.61
2022-11-01T21:22:02.856Z,99.79
2022-11-01T21:25:20.466Z,99.71
2022-11-01T21:28:29.077Z,99.65
2022-11-01T21:31:35.676Z,100.00
2022-11-01T21:34:38.696Z,100.00
2022-11-01T21:37:41.700Z,100.00
2022-11-01T21:40:44.486Z,100.00
2022-11-01T21:43:47.210Z,100.00
2022-11-01T21:46:53.032Z,100.00
2022-11-01T21:49:56.060Z,100.00
2022-11-01T21:52:58.786Z,100.00
2022-11-01T21:56:02.290Z,100.00
2022-11-01T21:59:05.249Z,100.00
2022-11-01T22:02:12.309Z,100.00
2022-11-01T22:05:15.436Z,100.00
2022-11-01T22:08:18.295Z,100.00
2022-11-01T22:11:23.771Z,100.00
2022-11-01T22:14:26.621Z,100.00
2022-11-01T22:17:30.766Z,100.00
2022-11-01T22:20:33.875Z,100.00
2022-11-01T22:23:36.546Z,100.00
2022-11-01T22:26:39.860Z,100.00
2022-11-01T22:29:42.652Z,100.00
2022-11-01T22:32:47.060Z,100.00
2022-11-01T22:35:49.739Z,100.00
2022-11-01T22:38:56.259Z,100.00
2022-11-01T22:41:59.008Z,100.00
2022-11-01T22:45:01.763Z,100.00
2022-11-01T22:48:15.398Z,100.00
2022-11-01T22:51:24.967Z,100.00
2022-11-01T22:54:33.299Z,100.00
2022-11-01T22:57:42.767Z,100.00
2022-11-01T23:00:47.511Z,100.00
2022-11-01T23:03:53.977Z,100.00
2022-11-01T23:07:02.238Z,100.00
2022-11-01T23:10:08.088Z,100.00
2022-11-01T23:13:35.114Z,100.00
2022-11-01T23:16:42.653Z,100.00
2022-11-01T23:19:47.269Z,100.00
2022-11-01T23:22:50.204Z,100.00
2022-11-01T23:25:54.281Z,100.00
2022-11-01T23:28:58.921Z,99.94
2022-11-01T23:32:02.048Z,100.00
2022-11-01T23:35:14.046Z,100.00
2022-11-01T23:38:21.050Z,100.00
2022-11-01T23:41:26.912Z,100.00
2022-11-01T23:44:31.900Z,100.00
2022-11-01T23:47:38.288Z,100.00
2022-11-01T23:50:42.818Z,100.00
2022-11-01T23:53:47.240Z,100.00
2022-11-01T23:56:50.014Z,100.00
2022-11-01T23:59:53.665Z,100.00
